createdAt,value
2019-03-10T00:01:09.543Z,5.00
2019-03-10T00:03:38.003Z,4.97
2019-03-10T00:06:06.629Z,5.10
2019-03-10T00:08:35.266Z,4.53
2019-03-10T00:11:03.807Z,5.83
2019-03-10T00:13:32.337Z,6.77
2019-03-10T00:16:00.881Z,5.37
2019-03-10T00:18:29.424Z,4.60
2019-03-10T00:20:57.890Z,6.10
2019-03-10T00:23:26.359Z,3.30
2019-03-10T00:25:54.819Z,3.23
2019-03-10T00:28:23.315Z,4.07
2019-03-10T00:30:51.833Z,4.33
2019-03-10T00:33:20.328Z,3.43
2019-03-10T00:35:48.787Z,4.93
2019-03-10T00:38:17.233Z,4.10
2019-03-10T00:41:05.035Z,4.50
2019-03-10T00:43:55.899Z,4.70
2019-03-10T00:46:42.307Z,6.43
2019-03-10T00:49:43.791Z,6.73
2019-03-10T00:52:21.481Z,3.80
2019-03-10T00:54:50.000Z,3.00
2019-03-10T00:57:18.569Z,3.93
2019-03-10T00:59:47.128Z,5.80
2019-03-10T01:02:15.655Z,5.33
2019-03-10T01:04:44.156Z,3.93
2019-03-10T01:07:12.847Z,4.27
2019-03-10T01:09:41.370Z,6.27
2019-03-10T01:12:09.922Z,3.70
2019-03-10T01:14:38.374Z,3.87
2019-03-10T01:17:06.845Z,2.37
2019-03-10T01:19:36.313Z,5.03
2019-03-10T01:22:04.929Z,5.63
2019-03-10T01:24:33.394Z,4.27
2019-03-10T01:27:01.934Z,4.40
2019-03-10T01:29:30.431Z,2.90
2019-03-10T01:32:04.708Z,3.97
2019-03-10T01:35:06.315Z,4.80
2019-03-10T01:37:34.797Z,7.07
2019-03-10T01:40:03.690Z,6.40
2019-03-10T01:42:32.188Z,6.67
2019-03-10T01:45:00.639Z,4.57
2019-03-10T01:47:29.165Z,5.90
2019-03-10T01:49:57.645Z,4.60
2019-03-10T01:52:26.111Z,3.93
2019-03-10T01:54:54.567Z,3.40
2019-03-10T01:57:23.057Z,3.30
2019-03-10T01:59:51.523Z,6.93
2019-03-10T02:02:25.586Z,4.50
2019-03-10T02:04:50.189Z,4.17
2019-03-10T02:07:18.642Z,5.20
2019-03-10T02:09:47.110Z,4.73
2019-03-10T02:12:15.559Z,4.27
2019-03-10T02:14:44.039Z,4.73
2019-03-10T02:17:12.569Z,5.10
2019-03-10T02:19:41.196Z,6.90
2019-03-10T02:22:09.642Z,5.57
2019-03-10T02:24:38.096Z,4.60
2019-03-10T02:27:06.651Z,5.53
2019-03-10T02:29:35.274Z,6.67
2019-03-10T02:32:03.820Z,5.03
2019-03-10T02:34:32.341Z,5.63
2019-03-10T02:37:00.819Z,4.80
2019-03-10T02:39:29.275Z,5.80
2019-03-10T02:41:57.751Z,4.50
2019-03-10T02:44:26.357Z,5.43
2019-03-10T02:46:54.840Z,3.20
2019-03-10T02:49:23.298Z,6.73
2019-03-10T02:51:51.770Z,4.73
2019-03-10T02:54:20.230Z,4.50
2019-03-10T02:56:48.704Z,3.43
2019-03-10T02:59:17.251Z,2.87
2019-03-10T03:01:45.903Z,4.93
2019-03-10T03:04:14.440Z,3.23
2019-03-10T03:06:42.934Z,6.17
2019-03-10T03:09:11.393Z,7.00
2019-03-10T03:11:40.047Z,5.53
2019-03-10T03:14:08.602Z,5.70
2019-03-10T03:16:37.137Z,6.27
2019-03-10T03:19:05.696Z,4.73
2019-03-10T03:21:43.146Z,4.97
2019-03-10T03:24:04.351Z,7.93
2019-03-10T03:26:32.984Z,5.50
2019-03-10T03:29:01.542Z,3.97
2019-03-10T03:31:30.172Z,4.60
2019-03-10T03:33:58.736Z,4.53
2019-03-10T03:36:29.618Z,3.40
2019-03-10T03:39:19.261Z,6.27
2019-03-10T03:41:47.879Z,5.80
2019-03-10T03:44:16.439Z,8.20
2019-03-10T03:46:44.964Z,5.80
2019-03-10T03:49:13.448Z,5.63
2019-03-10T03:51:41.917Z,5.50
2019-03-10T03:54:10.460Z,3.50
2019-03-10T03:56:38.915Z,6.10
2019-03-10T03:59:07.374Z,3.73
2019-03-10T04:01:37.491Z,3.67
2019-03-10T04:04:05.942Z,6.23
2019-03-10T04:06:34.436Z,6.07
2019-03-10T04:09:04.556Z,4.70
2019-03-10T04:11:33.070Z,5.30
2019-03-10T04:14:01.557Z,3.97
2019-03-10T04:16:30.032Z,5.33
2019-03-10T04:18:58.586Z,6.30
2019-03-10T04:21:27.040Z,4.87
2019-03-10T04:23:55.505Z,6.07
2019-03-10T04:26:25.617Z,5.83
2019-03-10T04:28:54.244Z,5.33
2019-03-10T04:31:43.733Z,5.47
2019-03-10T04:34:12.229Z,7.40
2019-03-10T04:36:40.713Z,3.93
2019-03-10T04:39:09.165Z,4.73
2019-03-10T04:41:37.724Z,6.27
2019-03-10T04:44:06.311Z,3.37
2019-03-10T04:46:34.781Z,5.63
2019-03-10T04:49:03.228Z,4.23
2019-03-10T04:51:31.706Z,5.73
2019-03-10T04:54:00.160Z,6.37
2019-03-10T04:56:30.447Z,5.93
2019-03-10T04:58:58.893Z,4.47
2019-03-10T05:01:27.372Z,5.47
2019-03-10T05:03:55.832Z,4.73
2019-03-10T05:06:24.292Z,4.77
2019-03-10T05:08:52.772Z,5.27
2019-03-10T05:11:21.250Z,6.40
2019-03-10T05:13:49.710Z,5.13
2019-03-10T05:16:18.251Z,7.63
2019-03-10T05:18:46.728Z,6.27
2019-03-10T05:21:15.175Z,5.50
2019-03-10T05:23:43.647Z,7.37
2019-03-10T05:26:12.172Z,5.37
2019-03-10T05:28:42.990Z,4.67
2019-03-10T05:31:11.506Z,5.93
2019-03-10T05:33:40.054Z,7.83
2019-03-10T05:36:08.508Z,5.27
2019-03-10T05:38:37.057Z,7.57
2019-03-10T05:41:05.575Z,2.87
2019-03-10T05:43:34.115Z,3.83
2019-03-10T05:46:02.662Z,7.67
2019-03-10T05:48:31.107Z,7.47
2019-03-10T05:50:59.663Z,5.60
2019-03-10T05:53:28.134Z,4.70
2019-03-10T05:55:56.679Z,6.57
2019-03-10T05:58:25.127Z,5.17
2019-03-10T06:00:53.616Z,4.73
2019-03-10T06:03:22.250Z,4.67
2019-03-10T06:05:50.726Z,6.23
2019-03-10T06:08:19.176Z,4.20
2019-03-10T06:10:47.648Z,4.13
2019-03-10T06:13:16.101Z,5.27
2019-03-10T06:15:44.589Z,6.27
2019-03-10T06:18:14.184Z,7.40
2019-03-10T06:20:42.756Z,6.07
2019-03-10T06:23:11.305Z,4.13
2019-03-10T06:25:39.764Z,5.20
2019-03-10T06:28:08.308Z,5.43
2019-03-10T06:30:36.783Z,6.07
2019-03-10T06:33:05.317Z,4.07
2019-03-10T06:35:34.038Z,5.53
2019-03-10T06:38:02.515Z,3.43
2019-03-10T06:40:32.513Z,6.27
2019-03-10T06:43:01.209Z,3.53
2019-03-10T06:45:29.664Z,5.97
2019-03-10T06:47:58.143Z,7.00
2019-03-10T06:50:26.616Z,5.17
2019-03-10T06:52:55.096Z,4.57
2019-03-10T06:55:23.598Z,4.57
2019-03-10T06:57:52.151Z,2.33
2019-03-10T07:00:20.600Z,4.43
2019-03-10T07:02:49.092Z,4.40
2019-03-10T07:05:17.549Z,4.40
2019-03-10T07:07:46.026Z,3.07
2019-03-10T07:10:17.426Z,3.43
2019-03-10T07:12:46.085Z,3.63
2019-03-10T07:15:14.797Z,5.17
2019-03-10T07:17:43.324Z,2.30
2019-03-10T07:20:19.293Z,2.07
2019-03-10T07:22:47.750Z,3.23
2019-03-10T07:25:16.302Z,4.63
2019-03-10T07:27:46.394Z,2.03
2019-03-10T07:30:19.270Z,3.50
2019-03-10T07:32:55.432Z,2.53
2019-03-10T07:35:31.333Z,3.87
2019-03-10T07:38:01.426Z,2.53
2019-03-10T07:40:52.501Z,2.50
2019-03-10T07:43:25.563Z,2.27
2019-03-10T07:45:55.754Z,2.60
2019-03-10T07:48:40.744Z,2.80
2019-03-10T07:51:10.858Z,3.10
2019-03-10T07:53:40.958Z,3.93
2019-03-10T07:56:19.880Z,2.63
2019-03-10T07:58:55.830Z,2.60
2019-03-10T08:01:41.881Z,3.30
2019-03-10T08:04:14.762Z,2.23
2019-03-10T08:06:56.936Z,2.93
2019-03-10T08:09:29.993Z,2.57
2019-03-10T08:12:06.084Z,2.53
2019-03-10T08:14:38.870Z,3.47
2019-03-10T08:17:09.002Z,2.80
2019-03-10T08:19:39.107Z,2.13
2019-03-10T08:22:12.250Z,2.40
2019-03-10T08:24:45.072Z,8.40
2019-03-10T08:27:33.104Z,5.67
2019-03-10T08:30:03.189Z,3.03
2019-03-10T08:32:33.300Z,6.20
2019-03-10T08:35:03.390Z,5.73
2019-03-10T08:37:49.818Z,3.83
2019-03-10T08:40:35.090Z,2.60
2019-03-10T08:43:05.210Z,2.17
2019-03-10T08:45:38.037Z,2.10
2019-03-10T08:48:26.050Z,1.70
2019-03-10T08:50:56.148Z,2.47
2019-03-10T08:53:41.219Z,2.27
2019-03-10T08:56:16.792Z,1.77
2019-03-10T08:58:49.880Z,3.13
2019-03-10T09:01:19.975Z,1.73
2019-03-10T09:04:07.988Z,1.40
2019-03-10T09:06:38.078Z,1.40
2019-03-10T09:09:14.961Z,1.50
2019-03-10T09:11:45.066Z,1.30
2019-03-10T09:14:15.191Z,1.30
2019-03-10T09:16:45.349Z,1.30
2019-03-10T09:19:21.258Z,1.33
2019-03-10T09:22:09.191Z,1.40
2019-03-10T09:24:41.993Z,1.33
2019-03-10T09:27:23.569Z,1.73
2019-03-10T09:29:59.427Z,1.03
2019-03-10T09:32:38.339Z,1.80
2019-03-10T09:35:08.731Z,1.20
2019-03-10T09:37:41.804Z,0.90
2019-03-10T09:40:27.937Z,1.23
2019-03-10T09:43:09.955Z,0.90
2019-03-10T09:45:45.822Z,1.10
2019-03-10T09:48:30.540Z,0.83
2019-03-10T09:51:06.525Z,0.80
2019-03-10T09:53:36.622Z,0.90
2019-03-10T09:56:09.542Z,0.80
2019-03-10T09:58:42.365Z,0.90
2019-03-10T10:01:21.334Z,1.90
2019-03-10T10:03:51.460Z,0.90
2019-03-10T10:06:24.351Z,0.90
2019-03-10T10:08:54.465Z,1.20
2019-03-10T10:11:41.007Z,0.97
2019-03-10T10:14:11.146Z,1.43
2019-03-10T10:16:41.321Z,1.30
2019-03-10T10:19:14.226Z,1.00
2019-03-10T10:21:44.350Z,1.33
2019-03-10T10:24:30.501Z,1.57
2019-03-10T10:27:03.505Z,1.27
2019-03-10T10:29:33.599Z,1.20
2019-03-10T10:32:21.202Z,1.20
2019-03-10T10:34:57.527Z,1.30
2019-03-10T10:37:30.444Z,2.13
2019-03-10T10:40:12.451Z,1.20
2019-03-10T10:42:42.575Z,1.00
2019-03-10T10:45:24.960Z,0.90
2019-03-10T10:48:10.006Z,0.93
2019-03-10T10:50:42.703Z,0.90
2019-03-10T10:53:31.015Z,0.83
2019-03-10T10:56:03.904Z,0.90
2019-03-10T10:58:36.787Z,1.03
2019-03-10T11:01:06.975Z,1.00
2019-03-10T11:03:53.380Z,1.10
2019-03-10T11:06:26.470Z,1.00
2019-03-10T11:09:08.604Z,1.10
2019-03-10T11:11:53.871Z,0.93
2019-03-10T11:14:26.643Z,0.90
2019-03-10T11:16:56.845Z,1.60
2019-03-10T11:19:26.961Z,0.90
2019-03-10T11:21:59.835Z,1.00
2019-03-10T11:24:42.239Z,1.13
2019-03-10T11:27:29.183Z,1.20
2019-03-10T11:30:08.365Z,0.80
2019-03-10T11:32:38.540Z,1.00
2019-03-10T11:35:12.839Z,1.10
2019-03-10T11:37:43.155Z,0.93
2019-03-10T11:40:16.167Z,0.80
2019-03-10T11:42:46.316Z,0.90
2019-03-10T11:45:22.484Z,0.90
2019-03-10T11:47:55.353Z,0.90
2019-03-10T11:50:25.610Z,0.90
2019-03-10T11:52:55.702Z,1.00
2019-03-10T11:55:44.140Z,1.27
2019-03-10T11:58:14.400Z,0.90
2019-03-10T12:00:44.504Z,0.93
2019-03-10T12:03:17.328Z,0.60
2019-03-10T12:05:53.289Z,0.90
2019-03-10T12:08:23.402Z,0.70
2019-03-10T12:10:51.932Z,0.80
2019-03-10T12:13:20.386Z,0.70
2019-03-10T12:15:49.117Z,1.73
2019-03-10T12:18:17.557Z,0.73
2019-03-10T12:20:46.146Z,0.80
2019-03-10T12:23:14.605Z,0.80
2019-03-10T12:25:43.062Z,0.80
2019-03-10T12:28:11.508Z,0.90
2019-03-10T12:30:40.169Z,0.80
2019-03-10T12:33:08.635Z,1.70
2019-03-10T12:35:37.082Z,0.90
2019-03-10T12:38:05.629Z,1.10
2019-03-10T12:40:34.079Z,1.60
2019-03-10T12:43:02.570Z,0.80
2019-03-10T12:45:31.010Z,0.63
2019-03-10T12:47:59.492Z,0.80
2019-03-10T12:50:28.064Z,1.33
2019-03-10T12:52:56.600Z,0.73
2019-03-10T12:55:25.274Z,1.20
2019-03-10T12:57:53.738Z,0.73
2019-03-10T13:00:22.217Z,1.40
2019-03-10T13:02:50.947Z,0.70
2019-03-10T13:05:19.424Z,1.30
2019-03-10T13:07:47.886Z,1.03
2019-03-10T13:10:16.898Z,2.17
2019-03-10T13:12:45.477Z,2.60
2019-03-10T13:15:14.069Z,1.97
2019-03-10T13:17:42.847Z,4.43
2019-03-10T13:20:12.550Z,2.97
2019-03-10T13:22:41.006Z,5.77
2019-03-10T13:25:12.764Z,1.80
2019-03-10T13:27:41.472Z,0.93
2019-03-10T13:30:15.708Z,1.67
2019-03-10T13:32:44.802Z,2.13
2019-03-10T13:35:13.899Z,1.30
2019-03-10T13:37:42.353Z,1.90
2019-03-10T13:40:13.362Z,1.50
2019-03-10T13:42:41.808Z,2.30
2019-03-10T13:45:16.196Z,3.37
2019-03-10T13:47:44.643Z,1.70
2019-03-10T13:50:15.032Z,2.57
2019-03-10T13:52:43.849Z,1.77
2019-03-10T13:55:13.030Z,1.10
2019-03-10T13:57:41.784Z,1.50
2019-03-10T14:00:20.161Z,1.10
2019-03-10T14:02:49.472Z,1.47
2019-03-10T14:05:17.918Z,1.70
2019-03-10T14:07:46.775Z,2.10
2019-03-10T14:10:15.552Z,1.73
2019-03-10T14:12:44.035Z,1.87
2019-03-10T14:15:14.258Z,1.67
2019-03-10T14:17:43.085Z,2.63
2019-03-10T14:20:13.580Z,2.10
2019-03-10T14:22:42.555Z,3.17
2019-03-10T14:25:12.772Z,1.40
2019-03-10T14:27:41.618Z,1.93
2019-03-10T14:30:20.480Z,1.70
2019-03-10T14:32:48.928Z,3.00
2019-03-10T14:35:17.726Z,3.03
2019-03-10T14:37:46.571Z,2.70
2019-03-10T14:40:22.152Z,2.40
2019-03-10T14:42:50.669Z,4.47
2019-03-10T14:45:19.688Z,2.47
2019-03-10T14:47:48.233Z,3.03
2019-03-10T14:50:20.307Z,3.77
2019-03-10T14:52:49.149Z,3.40
2019-03-10T14:55:22.623Z,2.93
2019-03-10T14:57:51.091Z,4.30
2019-03-10T15:00:26.105Z,3.17
2019-03-10T15:02:54.787Z,3.80
2019-03-10T15:05:23.332Z,2.37
2019-03-10T15:07:51.850Z,5.20
2019-03-10T15:10:20.503Z,5.63
2019-03-10T15:12:48.992Z,1.70
2019-03-10T15:15:22.673Z,6.53
2019-03-10T15:17:49.475Z,3.23
2019-03-10T15:20:21.454Z,6.17
2019-03-10T15:22:49.492Z,5.30
2019-03-10T15:25:24.964Z,3.50
2019-03-10T15:27:52.769Z,8.03
2019-03-10T15:30:25.906Z,3.23
2019-03-10T15:32:54.517Z,2.53
2019-03-10T15:35:23.037Z,2.90
2019-03-10T15:37:51.581Z,2.70
2019-03-10T15:40:20.380Z,3.37
2019-03-10T15:42:49.304Z,2.30
2019-03-10T15:45:19.059Z,3.83
2019-03-10T15:47:47.602Z,2.47
2019-03-10T15:50:31.056Z,2.97
2019-03-10T15:52:59.541Z,2.97
2019-03-10T15:55:28.088Z,4.97
2019-03-10T15:57:56.630Z,3.07
2019-03-10T16:00:26.829Z,5.37
2019-03-10T16:02:55.446Z,3.80
2019-03-10T16:05:24.030Z,3.77
2019-03-10T16:07:52.502Z,4.27
2019-03-10T16:10:21.736Z,2.73
2019-03-10T16:12:50.758Z,3.20
2019-03-10T16:15:24.021Z,4.73
2019-03-10T16:17:52.546Z,5.00
2019-03-10T16:20:21.361Z,3.77
2019-03-10T16:22:50.230Z,4.33
2019-03-10T16:25:19.353Z,4.70
2019-03-10T16:27:49.802Z,4.40
2019-03-10T16:30:20.488Z,5.43
2019-03-10T16:32:49.113Z,3.50
2019-03-10T16:35:17.719Z,4.60
2019-03-10T16:37:46.497Z,7.07
2019-03-10T16:40:16.419Z,3.43
2019-03-10T16:42:44.891Z,6.27
2019-03-10T16:45:22.138Z,9.00
2019-03-10T16:47:51.281Z,3.23
2019-03-10T16:50:21.428Z,4.83
2019-03-10T16:52:50.424Z,6.03
2019-03-10T16:55:19.289Z,6.20
2019-03-10T16:57:47.769Z,6.07
2019-03-10T17:00:19.714Z,5.60
2019-03-10T17:02:48.939Z,6.30
2019-03-10T17:05:22.314Z,6.77
2019-03-10T17:07:51.880Z,5.67
2019-03-10T17:10:27.315Z,3.70
2019-03-10T17:12:56.231Z,3.90
2019-03-10T17:15:25.665Z,10.40
2019-03-10T17:17:54.967Z,5.57
2019-03-10T17:20:23.443Z,5.83
2019-03-10T17:22:52.170Z,4.40
2019-03-10T17:25:20.644Z,3.63
2019-03-10T17:27:49.247Z,3.43
2019-03-10T17:30:19.659Z,3.37
2019-03-10T17:32:48.333Z,5.30
2019-03-10T17:35:18.220Z,4.37
2019-03-10T17:37:48.540Z,5.47
2019-03-10T17:40:23.578Z,4.90
2019-03-10T17:42:52.045Z,7.37
2019-03-10T17:45:22.766Z,3.67
2019-03-10T17:47:51.526Z,4.60
2019-03-10T17:50:20.123Z,3.77
2019-03-10T17:52:49.890Z,7.67
2019-03-10T17:55:20.679Z,3.50
2019-03-10T17:57:49.133Z,6.27
2019-03-10T18:00:20.489Z,4.23
2019-03-10T18:02:48.969Z,5.37
2019-03-10T18:05:17.551Z,5.63
2019-03-10T18:07:46.005Z,4.67
2019-03-10T18:10:18.653Z,3.80
2019-03-10T18:12:47.189Z,4.33
2019-03-10T18:15:19.912Z,3.20
2019-03-10T18:17:48.451Z,9.07
2019-03-10T18:20:22.259Z,4.00
2019-03-10T18:22:50.929Z,2.97
2019-03-10T18:25:19.478Z,4.60
2019-03-10T18:27:47.954Z,2.77
2019-03-10T18:30:20.866Z,3.53
2019-03-10T18:32:49.355Z,3.53
2019-03-10T18:35:17.869Z,2.80
2019-03-10T18:37:46.590Z,3.07
2019-03-10T18:40:20.968Z,4.17
2019-03-10T18:42:49.971Z,2.80
2019-03-10T18:45:19.967Z,2.73
2019-03-10T18:47:48.494Z,2.00
2019-03-10T18:50:24.486Z,4.33
2019-03-10T18:52:53.003Z,3.10
2019-03-10T18:55:22.221Z,4.17
2019-03-10T18:57:50.752Z,3.40
2019-03-10T19:00:22.112Z,4.03
2019-03-10T19:02:50.661Z,5.57
2019-03-10T19:05:19.461Z,4.50
2019-03-10T19:07:48.136Z,2.30
2019-03-10T19:10:16.689Z,3.57
2019-03-10T19:12:45.657Z,3.07
2019-03-10T19:15:19.549Z,4.57
2019-03-10T19:17:47.996Z,2.70
2019-03-10T19:20:16.616Z,3.87
2019-03-10T19:22:45.139Z,1.87
2019-03-10T19:25:15.817Z,4.00
2019-03-10T19:27:44.606Z,3.43
2019-03-10T19:30:20.989Z,2.93
2019-03-10T19:32:49.874Z,3.40
2019-03-10T19:35:18.419Z,3.57
2019-03-10T19:37:47.433Z,3.73
2019-03-10T19:40:21.337Z,4.93
2019-03-10T19:42:49.782Z,3.77
2019-03-10T19:45:20.335Z,1.33
2019-03-10T19:47:49.008Z,1.63
2019-03-10T19:50:27.208Z,1.40
2019-03-10T19:52:55.622Z,0.90
2019-03-10T19:55:24.071Z,0.87
2019-03-10T19:57:52.829Z,1.03
2019-03-10T20:00:22.315Z,0.80
2019-03-10T20:02:50.780Z,1.10
2019-03-10T20:05:19.496Z,0.80
2019-03-10T20:07:48.052Z,0.80
2019-03-10T20:10:18.211Z,1.10
2019-03-10T20:12:46.771Z,1.23
2019-03-10T20:15:17.167Z,1.03
2019-03-10T20:17:46.300Z,1.00
2019-03-10T20:20:26.610Z,1.40
2019-03-10T20:22:55.569Z,1.63
2019-03-10T20:25:24.319Z,1.57
2019-03-10T20:27:52.787Z,1.70
2019-03-10T20:30:25.737Z,1.03
2019-03-10T20:32:54.223Z,2.03
2019-03-10T20:35:22.848Z,1.23
2019-03-10T20:37:51.572Z,1.20
2019-03-10T20:40:24.541Z,1.47
2019-03-10T20:42:53.141Z,1.20
2019-03-10T20:45:24.283Z,1.10
2019-03-10T20:47:52.180Z,1.90
2019-03-10T20:50:21.388Z,1.17
2019-03-10T20:52:49.840Z,1.10
2019-03-10T20:55:18.384Z,1.87
2019-03-10T20:57:47.032Z,1.67
2019-03-10T21:00:26.027Z,3.13
2019-03-10T21:02:54.483Z,2.17
2019-03-10T21:05:23.546Z,2.90
2019-03-10T21:07:51.993Z,1.20
2019-03-10T21:10:29.361Z,1.73
2019-03-10T21:12:57.904Z,2.20
2019-03-10T21:15:26.834Z,1.27
2019-03-10T21:17:55.364Z,1.70
2019-03-10T21:20:24.955Z,1.67
2019-03-10T21:22:53.429Z,1.10
2019-03-10T21:25:24.270Z,1.10
2019-03-10T21:27:52.745Z,1.00
2019-03-10T21:30:25.723Z,1.00
2019-03-10T21:32:54.574Z,1.40
2019-03-10T21:35:23.274Z,1.53
2019-03-10T21:37:51.824Z,1.10
2019-03-10T21:40:30.405Z,1.00
2019-03-10T21:42:59.035Z,1.77
2019-03-10T21:45:27.625Z,1.63
2019-03-10T21:47:56.164Z,1.83
2019-03-10T21:50:24.809Z,0.80
2019-03-10T21:52:53.269Z,1.30
2019-03-10T21:55:21.734Z,1.00
2019-03-10T21:57:50.177Z,1.17
2019-03-10T22:00:19.588Z,1.17
2019-03-10T22:02:48.641Z,1.30
2019-03-10T22:05:17.842Z,1.20
2019-03-10T22:07:46.622Z,1.00
2019-03-10T22:10:26.280Z,1.20
2019-03-10T22:12:46.831Z,1.03
2019-03-10T22:15:18.964Z,1.23
2019-03-10T22:17:47.498Z,1.00
2019-03-10T22:20:20.114Z,1.20
2019-03-10T22:22:49.837Z,1.40
2019-03-10T22:25:18.877Z,1.33
2019-03-10T22:27:47.563Z,2.30
2019-03-10T22:30:19.116Z,1.27
2019-03-10T22:32:47.633Z,1.20
2019-03-10T22:35:16.321Z,1.87
2019-03-10T22:37:45.210Z,2.00
2019-03-10T22:40:15.404Z,1.50
2019-03-10T22:42:44.010Z,1.40
2019-03-10T22:45:20.384Z,1.53
2019-03-10T22:47:48.919Z,1.40
2019-03-10T22:50:17.916Z,1.60
2019-03-10T22:52:46.512Z,3.30
2019-03-10T22:55:16.095Z,1.37
2019-03-10T22:57:44.929Z,1.50
2019-03-10T23:00:16.398Z,3.97
2019-03-10T23:02:44.959Z,1.73
2019-03-10T23:05:13.553Z,1.50
2019-03-10T23:07:42.013Z,1.93
2019-03-10T23:10:13.394Z,1.73
2019-03-10T23:12:42.134Z,1.77
2019-03-10T23:15:12.614Z,1.60
2019-03-10T23:17:41.076Z,3.37
2019-03-10T23:20:14.710Z,2.70
2019-03-10T23:22:43.722Z,1.90
2019-03-10T23:25:13.318Z,1.80
2019-03-10T23:27:42.314Z,3.37
2019-03-10T23:30:16.496Z,1.50
2019-03-10T23:32:45.021Z,2.60
2019-03-10T23:35:14.320Z,1.87
2019-03-10T23:37:42.946Z,1.90
2019-03-10T23:40:13.157Z,2.17
2019-03-10T23:42:41.858Z,1.93
2019-03-10T23:45:15.727Z,1.97
2019-03-10T23:47:44.248Z,3.90
2019-03-10T23:50:19.288Z,6.20
2019-03-10T23:52:47.864Z,4.83
2019-03-10T23:55:16.320Z,2.60
2019-03-10T23:57:44.841Z,2.40
